To NAV CANADA Home Page Login to a new session Search on AWWS site Feedback and Comments Disclaimer Vers la page française équivalente Tips FAQ What's new on the site To the Forecasts and Observations / NOTAM section To "File a Flight Plan" website Publications and other links Update of the User's profile FIC Telephone Numbers My Weather Data Folder Route Weather Data Regional Weather Data Local Weather Data To the Forecasts and Observations / NOTAM section
Request Generated 04/30/2017 at 05:04:59 UTC . Weather information available at that time is displayed.


Go to a specific product

Save this request

NOTAM

NOTAM


SIGMET
To the Product Selector

SIGMETS GFACN32

GFACN32 - No SIGMET bulletins in effect



AIRMET
To the Product Selector

AIRMETS GFACN32

GFACN32 - No AIRMET bulletins in effect



PIREP
To the Product Selector

FIR_WINNIPEG (WG)

WG - PIREP not available



METAR/TAF
To the Product Selector

REGINA/REGINA INTL/SK    

METAR CYQR 300500Z 24006KT 15SM -SHRA OVC042 07/04 A3009 RMK SC8
SLP210=
SPECI CYQR 300435Z 25009G15KT 15SM BKN065 07/05 A3010 RMK SC7 SLP212=
METAR CYQR 300400Z 26026G36KT 15SM -SHRA SCT058 BKN110 08/03 A3009
RMK CU3AC4 PRESRR SLP208=
METAR CYQR 300300Z 14005KT 15SM FEW110 SCT210 09/M02 A3006 RMK AC2CI2
SLP201=

TAF AMD CYQR 300407Z 3004/3024 14007KT P6SM BKN060 TEMPO 3004/3006
VRB20G30KT P6SM -SHRA OVC040
FM300800 16010KT P6SM
SCT060 SCT240
FM302100 18010KT P6SM BKN080
RMK NXT FCST BY 300600Z=

MOOSE JAW/AIR VICE MARSHAL C.M. MCEWEN/SK    

CYMJ - METAR not available

*** REMARK        : Forecast period has ended; this was the last TAF issued
*** REMARQUE : La période de prévision est échue; ceci était le dernier TAF qui a été émis
TAF AMD CYMJ 290036Z 2900/2912 FCST CNCLD DUE END OF FLYING PROGRAM
RMK NXT FCST WILL BE ISSUED AT 011115Z=


RADAR PCPN RATE
To the Product Selector
Pacific Canada      Western Canada     

SATELLITE VISIBLE
To the Product Selector
West Canada      

SATELLITE INFRARED
To the Product Selector
West Canada     

GRAPHICAL FA CLOUDS & WEATHER FORECASTS
To the Product Selector
Graphical FA gfacn32      

GRAPHICAL FA ICING, TURBULENCE & FREEZING LEVEL FORECASTS
To the Product Selector
Graphical FA gfacn32      

FDTEXT Low Level FD. Temperatures are not forecast for the 3,000-foot level.
To the Product Selector
STN YQR - REGINA. SASK for use 3000 6000 9000 12000 18000
FDCN01 CWAO FCST BASED ON 300000 DATA VALID 300600 05-09 1918+01 2132-06 2229-13 2323-28
FDCN02 CWAO FCST BASED ON 300000 DATA VALID 301200 09-18 2313+01 2322-06 2425-14 2733-25
FDCN03 CWAO FCST BASED ON 300000 DATA VALID 010000 18-05 2111+03 2019-04 2218-11 2532-22



Your time UTC time
Weather data provided by Environment Canada and NAV CANADA